Aktualne dane pomiarowe

Uwaga, wersja testowa! Automatyczne pobieranie danych za pomocą narzędzi lub skryptów to umożliwiających jest zabronione.

Dane meteo z obszaru Polski uzyskane na podstawie depesz SYNOP pobieranych co godzinę z NWS. Najedź myszką na symbol przedstawiony w tabeli, aby uzyskać informacje co do jego znaczenia. Prosimy pamiętać, że to testowa wersja strony, która jeszcze nie jest ukończona. Stworzono również jest krótki FAQ dotyczący korzystania z tej podstrony Anomalie temperatury w chwili obecnej odniesione są do okresu referencyjnego 1951-2016. Okres ten będzie później zmieniony na 1981-2010. Kliknij ikonę aby pobrać plik CSV. Kliknij ikonę aby wygenerować mapę synoptyczną dla danego terminu.

Wybierz Datę:    

        

Lublin-Radawiec (12495)

Dane terminowe dla wybranej stacji. Kliknij datę, aby otrzymać dane z tego terminu dla wszystkich stacji.

TemperaturaZachmurzenieWiatrCiśnienieOpadyPogoda
 Data t td wb tx tn tg rh  Nt Nl Cl Cm Ch ws wd g1 g2 wx mslp ppp ch 24h 12h t ww ww w1 w2  
2019-07-12 23:00:00 14.8 9.7 11.6--- 7240.0wxwxwxwx1wx--11009.7 981.4 -0.6---------
2019-07-12 22:00:00 15.5 9.7 11.9--- 6840.0wx-wx2wx---1009.9 981.6 -0.1---------
2019-07-12 21:00:00 15.0 9.7 11.7--- 7120.0wx-wx1wx--11010.2 981.9 0.6---------
2019-07-12 20:00:00 16.3 9.6 12.2--- 6530.0wxwxwxwx1wx--11010.2 982.0 0.9---------
2019-07-12 19:00:00 18.0 10.2 13.3--- 6035.0wx-wx0---01009.7 981.7 0.5---------
2019-07-12 18:00:00 20.1 9.4 13.8 23.7 16.3- 5020.0wxwxwxwx1wx--11009.1 981.3 -0.1- 0.012------
2019-07-12 17:00:00 21.4 11.2 15.2--- 5245.0wxwxwxwx1wx--11008.8 981.1 -0.8---------
2019-07-12 16:00:00 22.5 6.8 13.8--- 3640.0wxwxwxwx1wx--11008.8 981.2 -0.9---------
2019-07-12 15:00:00 23.5 5.9 13.8--- 3235.0wxwxwxwx2wx--21008.9 981.4 -0.8---------
2019-07-12 14:00:00 22.5 5.5 13.3--- 3340.0wxwxwxwx3wx--31009.5 981.9 -0.6---------
2019-07-12 13:00:00 22.3 7.0 13.8--- 3735.0wxwxwxwx2wx--21009.7 982.1 -0.6---------
2019-07-12 12:00:00 22.3 6.6 13.6--- 3640.0wxwxwxwx2wx-921009.8 982.2 -0.8- 0.06------
2019-07-12 11:00:00 21.2 6.0 12.9--- 3745.0wxwxwxwx2wx-921010.2 982.5 -0.6---------
2019-07-12 10:00:00 21.2 6.8 13.2--- 3935.0wxwxwxwxwx2wx--21010.4 982.7 -0.4---------
2019-07-12 09:00:00 20.9 6.9 13.1--- 4028.0wxwxwxwxwx3wx-831010.8 983.0 -0.2---------
2019-07-12 08:00:00 19.6 5.3 11.9--- 3935.0wxwxwxwxwx4wx--41011.0 983.1 -0.1---------
2019-07-12 07:00:00 18.2 8.5 12.5--- 5335.0wxwxwxwx3wx--31011.1 983.1 0.0---------
2019-07-12 06:00:00 16.3 10.0 12.4 16.5 10.3 9 6630.0wxwxwxwx2wx--21011.4 983.2 0.1- 0.012----- 3.7
2019-07-12 05:00:00 13.9 9.4 11.1--- 7435.0wxwxwxwx2wx---1011.7 983.2 0.2---------
2019-07-12 04:00:00 11.8 8.4 9.6--- 8030.0wxwxwxwx1wx--11011.8 983.1 0.0---------
2019-07-12 03:00:00 10.5 7.8 8.7--- 8340.0wxwxwxwxwx2wx--21011.9 983.1 -0.1---------
2019-07-12 02:00:00 10.9 7.9 9.0--- 8240.0wxwxwxwxwx2wx--21011.8 983.0 -0.5---------
2019-07-12 01:00:00 11.9 8.1 9.5--- 7850.0wxwxwxwx2wx--21011.8 983.1 -0.4---------
2019-07-12 00:00:00 12.0 8.4 9.7--- 7945.0wx-wxwx2wx--21011.9 983.2 -0.2- 0.06------
2019-07-11 23:00:00 12.7 8.7 10.2--- 7735.0wx-wx2wx--21012.1 983.5 0.3---------
2019-07-11 22:00:00 13.5 9.6 11.0--- 7745.0wx-wx2wx--21012.0 983.5 0.4---------
2019-07-11 21:00:00 13.2 9.9 11.0--- 8035.0wx-wx1wx--11012.0 983.4 0.4---------
2019-07-11 20:00:00 14.2 10.7 11.9--- 7930.0wx-wx1wx--11011.6 983.2 0.4---------
2019-07-11 19:00:00 15.2 10.7 12.3--- 7550.0wx-wx1wx--11011.4 983.1 0.5---------
2019-07-11 18:00:00 16.5 10.0 12.5 19.2 12.8- 6550.0wxwxwxwx2wx--21011.2 983.0 0.3--12------
2019-07-11 17:00:00 17.5 9.7 12.8--- 6045.0wxwxwxwx4wx--41010.9 982.8 0.3---------
2019-07-11 16:00:00 19.1 10.5 13.9--- 5730.0wxwxwxwx5wx--51010.5 982.6 0.0---------
2019-07-11 15:00:00 17.4 9.1 12.5--- 5830.0wxwxwxwx4wx--41010.8 982.7 0.4---------
2019-07-11 14:00:00 17.7 10.9 13.5--- 6435.0wxwxwx6wx--61010.6 982.5 0.0---------
2019-07-11 13:00:00 15.9 10.1 12.3--- 6835.0wxwxwx4wx--41010.9 982.6 -0.1---------
2019-07-11 12:00:00 16.8 10.0 12.6--- 6440.0wxwxwx4wx--41010.5 982.3 -0.6--6wx-w1--
2019-07-11 11:00:00 16.1 9.8 12.2--- 6635.0wxwxwx4wx--41010.7 982.5 0.0---------
2019-07-11 10:00:00 14.7 10.2 11.8--- 7425.0wxwxwx5wx--51011.1 982.7 0.4---wx---
2019-07-11 09:00:00 13.9 10.2 11.5--- 7815.0wxwxwx4wx--41011.4 982.9 0.6---wx---
2019-07-11 08:00:00 14.6 10.1 11.7--- 7430.0wxwxwx4wx--41010.9 982.5 0.3---------
2019-07-11 07:00:00 14.2 10.5 11.8--- 7820.0wxwxwxwx3wx---1010.7 982.3 0.2---------
2019-07-11 06:00:00 12.8 9.7 10.8 13.9 10.4 10 8125.0wxwxwx4wx--41010.9 982.3 0.1 0.1 0.012----- 1.3
2019-07-11 05:00:00 12.7 10.3 11.1--- 8520.0wxwxwx3wx--31010.8 982.2 0.1---------
2019-07-11 04:00:00 11.5 10.0 10.5--- 9121.0wxwxwx3wx--31010.8 982.1 -0.3---------
2019-07-11 03:00:00 11.2 10.2 10.5--- 9430.0wxwxwx3wx--31010.9 982.2 -0.1---------
2019-07-11 02:00:00 11.0 10.0 10.3--- 9440.0wxwxwx3wx--31010.8 982.1 -0.2---------
2019-07-11 01:00:00 10.5 9.7 9.9--- 9530.0wxwxwx3wx--31011.2 982.4 -0.1---------
2019-07-11 00:00:00 10.9 9.9 10.2--- 9440.0wxwxwx3wx--31011.1 982.3 -0.4- 0.06------
2.4 ms

 

Print Friendly, PDF & Email